sensor_id;sensor_type;location;lat;lon;timestamp;temperature;humidity
44775;DHT22;31340;51.402;0.016;2023-01-25T00:01:05;6.30;99.90
44775;DHT22;31340;51.402;0.016;2023-01-25T00:03:33;6.40;99.90
44775;DHT22;31340;51.402;0.016;2023-01-25T00:06:00;6.30;99.90
44775;DHT22;31340;51.402;0.016;2023-01-25T00:08:28;6.30;99.90
44775;DHT22;31340;51.402;0.016;2023-01-25T00:10:56;6.30;99.90
44775;DHT22;31340;51.402;0.016;2023-01-25T00:13:25;6.30;99.90
44775;DHT22;31340;51.402;0.016;2023-01-25T00:15:53;6.30;99.90
44775;DHT22;31340;51.402;0.016;2023-01-25T00:18:26;6.30;99.90
44775;DHT22;31340;51.402;0.016;2023-01-25T00:20:54;6.30;99.90
44775;DHT22;31340;51.402;0.016;2023-01-25T00:23:21;6.30;99.90
44775;DHT22;31340;51.402;0.016;2023-01-25T00:25:56;6.30;99.90
44775;DHT22;31340;51.402;0.016;2023-01-25T00:28:25;6.30;99.90
44775;DHT22;31340;51.402;0.016;2023-01-25T00:30:57;6.30;99.90
44775;DHT22;31340;51.402;0.016;2023-01-25T00:38:56;6.30;99.90
44775;DHT22;31340;51.402;0.016;2023-01-25T00:41:24;6.20;99.90
44775;DHT22;31340;51.402;0.016;2023-01-25T00:43:52;6.20;99.90
44775;DHT22;31340;51.402;0.016;2023-01-25T00:46:19;6.20;99.90
44775;DHT22;31340;51.402;0.016;2023-01-25T00:48:47;6.20;99.90
44775;DHT22;31340;51.402;0.016;2023-01-25T00:51:15;6.20;99.90
44775;DHT22;31340;51.402;0.016;2023-01-25T00:53:43;6.20;99.90
44775;DHT22;31340;51.402;0.016;2023-01-25T00:56:10;6.20;99.90
44775;DHT22;31340;51.402;0.016;2023-01-25T00:58:40;6.10;99.90
44775;DHT22;31340;51.402;0.016;2023-01-25T01:01:11;6.20;99.90
44775;DHT22;31340;51.402;0.016;2023-01-25T01:03:39;6.10;99.90
44775;DHT22;31340;51.402;0.016;2023-01-25T01:06:11;6.10;99.90
44775;DHT22;31340;51.402;0.016;2023-01-25T01:08:40;6.10;99.90
44775;DHT22;31340;51.402;0.016;2023-01-25T01:11:10;6.10;99.90
44775;DHT22;31340;51.402;0.016;2023-01-25T01:13:39;6.10;99.90
44775;DHT22;31340;51.402;0.016;2023-01-25T01:16:09;6.10;99.90
44775;DHT22;31340;51.402;0.016;2023-01-25T01:18:41;6.10;99.90
44775;DHT22;31340;51.402;0.016;2023-01-25T01:21:10;6.00;99.90
44775;DHT22;31340;51.402;0.016;2023-01-25T01:23:39;6.10;99.90
44775;DHT22;31340;51.402;0.016;2023-01-25T01:26:15;6.10;99.90
44775;DHT22;31340;51.402;0.016;2023-01-25T01:28:44;6.10;99.90
44775;DHT22;31340;51.402;0.016;2023-01-25T01:31:21;6.10;99.90
44775;DHT22;31340;51.402;0.016;2023-01-25T01:34:12;6.10;99.90
44775;DHT22;31340;51.402;0.016;2023-01-25T01:36:41;6.00;99.90
44775;DHT22;31340;51.402;0.016;2023-01-25T01:39:10;6.00;99.90
44775;DHT22;31340;51.402;0.016;2023-01-25T01:41:38;6.00;99.90
44775;DHT22;31340;51.402;0.016;2023-01-25T01:44:20;6.10;99.90
44775;DHT22;31340;51.402;0.016;2023-01-25T01:46:56;6.00;99.90
44775;DHT22;31340;51.402;0.016;2023-01-25T01:49:31;6.00;99.90
44775;DHT22;31340;51.402;0.016;2023-01-25T01:52:16;6.00;99.90
44775;DHT22;31340;51.402;0.016;2023-01-25T01:54:56;5.90;99.90
44775;DHT22;31340;51.402;0.016;2023-01-25T01:57:34;5.90;99.90
44775;DHT22;31340;51.402;0.016;2023-01-25T02:00:07;5.90;99.90
44775;DHT22;31340;51.402;0.016;2023-01-25T02:02:49;5.90;99.90
44775;DHT22;31340;51.402;0.016;2023-01-25T02:05:32;5.80;99.90
44775;DHT22;31340;51.402;0.016;2023-01-25T02:08:04;5.80;99.90
44775;DHT22;31340;51.402;0.016;2023-01-25T02:10:35;5.80;99.90
44775;DHT22;31340;51.402;0.016;2023-01-25T02:13:03;5.80;99.90
44775;DHT22;31340;51.402;0.016;2023-01-25T02:15:39;5.80;99.90
44775;DHT22;31340;51.402;0.016;2023-01-25T02:18:09;5.80;99.90
44775;DHT22;31340;51.402;0.016;2023-01-25T02:20:43;5.80;99.90
44775;DHT22;31340;51.402;0.016;2023-01-25T02:25:56;5.70;99.90
44775;DHT22;31340;51.402;0.016;2023-01-25T02:28:40;5.70;99.90
44775;DHT22;31340;51.402;0.016;2023-01-25T02:31:10;5.70;99.90
44775;DHT22;31340;51.402;0.016;2023-01-25T02:33:38;5.70;99.90
44775;DHT22;31340;51.402;0.016;2023-01-25T02:38:44;5.70;99.90
44775;DHT22;31340;51.402;0.016;2023-01-25T02:41:24;5.70;99.90
44775;DHT22;31340;51.402;0.016;2023-01-25T02:43:54;5.70;99.90
44775;DHT22;31340;51.402;0.016;2023-01-25T02:46:28;5.70;99.90
44775;DHT22;31340;51.402;0.016;2023-01-25T02:48:58;5.70;99.90
44775;DHT22;31340;51.402;0.016;2023-01-25T02:51:30;5.70;99.90
44775;DHT22;31340;51.402;0.016;2023-01-25T02:54:00;5.70;99.90
44775;DHT22;31340;51.402;0.016;2023-01-25T02:56:28;5.70;99.90
44775;DHT22;31340;51.402;0.016;2023-01-25T02:58:56;5.70;99.90
44775;DHT22;31340;51.402;0.016;2023-01-25T03:01:25;5.70;99.90
44775;DHT22;31340;51.402;0.016;2023-01-25T03:03:53;5.70;99.90
44775;DHT22;31340;51.402;0.016;2023-01-25T03:06:22;5.70;99.90
44775;DHT22;31340;51.402;0.016;2023-01-25T03:08:50;5.60;99.90
44775;DHT22;31340;51.402;0.016;2023-01-25T03:11:19;5.60;99.90
44775;DHT22;31340;51.402;0.016;2023-01-25T03:13:47;5.60;99.90
44775;DHT22;31340;51.402;0.016;2023-01-25T03:16:15;5.60;99.90
44775;DHT22;31340;51.402;0.016;2023-01-25T03:18:44;5.60;99.90
44775;DHT22;31340;51.402;0.016;2023-01-25T03:21:18;5.60;99.90
44775;DHT22;31340;51.402;0.016;2023-01-25T03:23:47;5.60;99.90
44775;DHT22;31340;51.402;0.016;2023-01-25T03:26:22;5.60;99.90
44775;DHT22;31340;51.402;0.016;2023-01-25T03:29:09;5.60;99.90
44775;DHT22;31340;51.402;0.016;2023-01-25T03:31:40;5.50;99.90
44775;DHT22;31340;51.402;0.016;2023-01-25T03:34:09;5.50;99.90
44775;DHT22;31340;51.402;0.016;2023-01-25T03:36:40;5.50;99.90
44775;DHT22;31340;51.402;0.016;2023-01-25T03:39:09;5.50;99.90
44775;DHT22;31340;51.402;0.016;2023-01-25T03:41:40;5.50;99.90
44775;DHT22;31340;51.402;0.016;2023-01-25T03:44:11;5.50;99.90
44775;DHT22;31340;51.402;0.016;2023-01-25T03:46:41;5.40;99.90
44775;DHT22;31340;51.402;0.016;2023-01-25T03:49:11;5.40;99.90
44775;DHT22;31340;51.402;0.016;2023-01-25T03:51:39;5.50;99.90
44775;DHT22;31340;51.402;0.016;2023-01-25T03:54:07;5.50;99.90
44775;DHT22;31340;51.402;0.016;2023-01-25T03:56:37;5.50;99.90
44775;DHT22;31340;51.402;0.016;2023-01-25T03:59:11;5.40;99.90
44775;DHT22;31340;51.402;0.016;2023-01-25T04:01:42;5.50;99.90
44775;DHT22;31340;51.402;0.016;2023-01-25T04:04:12;5.50;99.90
44775;DHT22;31340;51.402;0.016;2023-01-25T04:06:43;5.50;99.90
44775;DHT22;31340;51.402;0.016;2023-01-25T04:09:11;5.50;99.90
44775;DHT22;31340;51.402;0.016;2023-01-25T04:11:50;5.50;99.90
44775;DHT22;31340;51.402;0.016;2023-01-25T04:14:19;5.50;99.90
44775;DHT22;31340;51.402;0.016;2023-01-25T04:17:04;5.50;99.90
44775;DHT22;31340;51.402;0.016;2023-01-25T04:19:34;5.50;99.90
44775;DHT22;31340;51.402;0.016;2023-01-25T04:22:05;5.50;99.90
44775;DHT22;31340;51.402;0.016;2023-01-25T04:24:37;5.50;99.90
44775;DHT22;31340;51.402;0.016;2023-01-25T04:27:05;5.50;99.90
44775;DHT22;31340;51.402;0.016;2023-01-25T04:29:40;5.50;99.90
44775;DHT22;31340;51.402;0.016;2023-01-25T04:32:14;5.50;99.90
44775;DHT22;31340;51.402;0.016;2023-01-25T04:34:42;5.50;99.90
44775;DHT22;31340;51.402;0.016;2023-01-25T04:37:15;5.50;99.90
44775;DHT22;31340;51.402;0.016;2023-01-25T04:39:51;5.50;99.90
44775;DHT22;31340;51.402;0.016;2023-01-25T04:42:20;5.50;99.90
44775;DHT22;31340;51.402;0.016;2023-01-25T04:44:52;5.40;99.90
44775;DHT22;31340;51.402;0.016;2023-01-25T04:47:20;5.40;99.90
44775;DHT22;31340;51.402;0.016;2023-01-25T04:49:48;5.40;99.90
44775;DHT22;31340;51.402;0.016;2023-01-25T04:52:19;5.40;99.90
44775;DHT22;31340;51.402;0.016;2023-01-25T04:54:47;5.40;99.90
44775;DHT22;31340;51.402;0.016;2023-01-25T04:57:16;5.30;99.90
44775;DHT22;31340;51.402;0.016;2023-01-25T04:59:49;5.30;99.90
44775;DHT22;31340;51.402;0.016;2023-01-25T05:02:17;5.30;99.90
44775;DHT22;31340;51.402;0.016;2023-01-25T05:04:46;5.30;99.90
44775;DHT22;31340;51.402;0.016;2023-01-25T05:07:15;5.30;99.90
44775;DHT22;31340;51.402;0.016;2023-01-25T05:09:43;5.30;99.90
44775;DHT22;31340;51.402;0.016;2023-01-25T05:12:12;5.20;99.90
44775;DHT22;31340;51.402;0.016;2023-01-25T05:15:00;5.20;99.90
44775;DHT22;31340;51.402;0.016;2023-01-25T05:17:28;5.20;99.90
44775;DHT22;31340;51.402;0.016;2023-01-25T05:19:56;5.20;99.90
44775;DHT22;31340;51.402;0.016;2023-01-25T05:22:24;5.20;99.90
44775;DHT22;31340;51.402;0.016;2023-01-25T05:24:53;5.20;99.90
44775;DHT22;31340;51.402;0.016;2023-01-25T05:27:21;5.20;99.90
44775;DHT22;31340;51.402;0.016;2023-01-25T05:29:55;5.20;99.90
44775;DHT22;31340;51.402;0.016;2023-01-25T05:32:38;5.10;99.90
44775;DHT22;31340;51.402;0.016;2023-01-25T05:35:06;5.10;99.90
44775;DHT22;31340;51.402;0.016;2023-01-25T05:37:34;5.10;99.90
44775;DHT22;31340;51.402;0.016;2023-01-25T05:40:07;5.10;99.90
44775;DHT22;31340;51.402;0.016;2023-01-25T05:42:38;5.10;99.90
44775;DHT22;31340;51.402;0.016;2023-01-25T05:45:12;5.10;99.90
44775;DHT22;31340;51.402;0.016;2023-01-25T05:47:41;5.10;99.90
44775;DHT22;31340;51.402;0.016;2023-01-25T05:50:10;5.10;99.90
44775;DHT22;31340;51.402;0.016;2023-01-25T05:53:00;5.10;99.90
44775;DHT22;31340;51.402;0.016;2023-01-25T05:55:29;5.10;99.90
44775;DHT22;31340;51.402;0.016;2023-01-25T05:58:02;5.10;99.90
44775;DHT22;31340;51.402;0.016;2023-01-25T06:00:30;5.00;99.90
44775;DHT22;31340;51.402;0.016;2023-01-25T06:03:00;5.00;99.90
44775;DHT22;31340;51.402;0.016;2023-01-25T06:05:30;5.00;99.90
44775;DHT22;31340;51.402;0.016;2023-01-25T06:07:58;5.00;99.90
44775;DHT22;31340;51.402;0.016;2023-01-25T06:10:35;5.10;99.90
44775;DHT22;31340;51.402;0.016;2023-01-25T06:13:03;5.00;99.90
44775;DHT22;31340;51.402;0.016;2023-01-25T06:15:31;5.00;99.90
44775;DHT22;31340;51.402;0.016;2023-01-25T06:18:19;5.00;99.90
44775;DHT22;31340;51.402;0.016;2023-01-25T06:21:10;5.00;99.90
44775;DHT22;31340;51.402;0.016;2023-01-25T06:23:38;5.00;99.90
44775;DHT22;31340;51.402;0.016;2023-01-25T06:26:09;5.00;99.90
44775;DHT22;31340;51.402;0.016;2023-01-25T06:28:38;5.00;99.90
44775;DHT22;31340;51.402;0.016;2023-01-25T06:31:09;5.00;99.90
44775;DHT22;31340;51.402;0.016;2023-01-25T06:33:38;5.00;99.90
44775;DHT22;31340;51.402;0.016;2023-01-25T06:36:11;5.00;99.90
44775;DHT22;31340;51.402;0.016;2023-01-25T06:38:40;5.00;99.90
44775;DHT22;31340;51.402;0.016;2023-01-25T06:41:10;5.00;99.90
44775;DHT22;31340;51.402;0.016;2023-01-25T06:43:39;4.90;99.90
44775;DHT22;31340;51.402;0.016;2023-01-25T06:46:08;4.90;99.90
44775;DHT22;31340;51.402;0.016;2023-01-25T06:48:38;4.90;99.90
44775;DHT22;31340;51.402;0.016;2023-01-25T06:51:10;4.80;99.90
44775;DHT22;31340;51.402;0.016;2023-01-25T06:53:41;4.80;99.90
44775;DHT22;31340;51.402;0.016;2023-01-25T06:56:14;4.80;99.90
44775;DHT22;31340;51.402;0.016;2023-01-25T06:58:42;4.80;99.90
44775;DHT22;31340;51.402;0.016;2023-01-25T07:01:15;4.70;99.90
44775;DHT22;31340;51.402;0.016;2023-01-25T07:03:47;4.70;99.90
44775;DHT22;31340;51.402;0.016;2023-01-25T07:06:16;4.70;99.90
44775;DHT22;31340;51.402;0.016;2023-01-25T07:08:44;4.70;99.90
44775;DHT22;31340;51.402;0.016;2023-01-25T07:11:12;4.70;99.90
44775;DHT22;31340;51.402;0.016;2023-01-25T07:13:42;4.70;99.90
44775;DHT22;31340;51.402;0.016;2023-01-25T07:16:16;4.70;99.90
44775;DHT22;31340;51.402;0.016;2023-01-25T07:18:44;4.70;99.90
44775;DHT22;31340;51.402;0.016;2023-01-25T07:21:20;4.70;99.90
44775;DHT22;31340;51.402;0.016;2023-01-25T07:23:49;4.70;99.90
44775;DHT22;31340;51.402;0.016;2023-01-25T07:26:24;4.70;99.90
44775;DHT22;31340;51.402;0.016;2023-01-25T07:28:52;4.70;99.90
44775;DHT22;31340;51.402;0.016;2023-01-25T07:31:20;4.70;99.90
44775;DHT22;31340;51.402;0.016;2023-01-25T07:33:51;4.70;99.90
44775;DHT22;31340;51.402;0.016;2023-01-25T07:36:20;4.70;99.90
44775;DHT22;31340;51.402;0.016;2023-01-25T07:38:49;4.70;99.90
44775;DHT22;31340;51.402;0.016;2023-01-25T07:41:19;4.60;99.90
44775;DHT22;31340;51.402;0.016;2023-01-25T07:43:47;4.60;99.90
44775;DHT22;31340;51.402;0.016;2023-01-25T07:46:27;4.60;99.90
44775;DHT22;31340;51.402;0.016;2023-01-25T07:48:54;4.50;99.90
44775;DHT22;31340;51.402;0.016;2023-01-25T07:51:25;4.50;99.90
44775;DHT22;31340;51.402;0.016;2023-01-25T07:54:02;4.50;99.90
44775;DHT22;31340;51.402;0.016;2023-01-25T07:56:33;4.40;99.90
44775;DHT22;31340;51.402;0.016;2023-01-25T07:59:02;4.40;99.90
44775;DHT22;31340;51.402;0.016;2023-01-25T08:01:31;4.40;99.90
44775;DHT22;31340;51.402;0.016;2023-01-25T08:04:01;4.40;99.90
44775;DHT22;31340;51.402;0.016;2023-01-25T08:06:32;4.40;99.90
44775;DHT22;31340;51.402;0.016;2023-01-25T08:09:12;4.40;99.90
44775;DHT22;31340;51.402;0.016;2023-01-25T08:11:40;4.40;99.90
44775;DHT22;31340;51.402;0.016;2023-01-25T08:14:08;4.40;99.90
44775;DHT22;31340;51.402;0.016;2023-01-25T08:16:37;4.40;99.90
44775;DHT22;31340;51.402;0.016;2023-01-25T08:19:05;4.40;99.90
44775;DHT22;31340;51.402;0.016;2023-01-25T08:21:34;4.40;99.90
44775;DHT22;31340;51.402;0.016;2023-01-25T08:24:03;4.40;99.90
44775;DHT22;31340;51.402;0.016;2023-01-25T08:26:33;4.40;99.90
44775;DHT22;31340;51.402;0.016;2023-01-25T08:29:02;4.40;99.90
44775;DHT22;31340;51.402;0.016;2023-01-25T08:31:32;4.40;99.90
44775;DHT22;31340;51.402;0.016;2023-01-25T08:34:01;4.40;99.90
44775;DHT22;31340;51.402;0.016;2023-01-25T08:36:29;4.40;99.90
44775;DHT22;31340;51.402;0.016;2023-01-25T08:39:02;4.40;99.90
44775;DHT22;31340;51.402;0.016;2023-01-25T08:41:32;4.40;99.90
44775;DHT22;31340;51.402;0.016;2023-01-25T08:44:00;4.40;99.90
44775;DHT22;31340;51.402;0.016;2023-01-25T08:46:32;4.40;99.90
44775;DHT22;31340;51.402;0.016;2023-01-25T08:49:01;4.30;99.90
44775;DHT22;31340;51.402;0.016;2023-01-25T08:51:30;4.30;99.90
44775;DHT22;31340;51.402;0.016;2023-01-25T08:54:06;4.30;99.90
44775;DHT22;31340;51.402;0.016;2023-01-25T08:56:36;4.30;99.90
44775;DHT22;31340;51.402;0.016;2023-01-25T08:59:04;4.30;99.90
44775;DHT22;31340;51.402;0.016;2023-01-25T09:01:32;4.30;99.90
44775;DHT22;31340;51.402;0.016;2023-01-25T09:04:00;4.20;99.90
44775;DHT22;31340;51.402;0.016;2023-01-25T09:06:28;4.20;99.90
44775;DHT22;31340;51.402;0.016;2023-01-25T09:08:58;4.20;99.90
44775;DHT22;31340;51.402;0.016;2023-01-25T09:11:26;4.20;99.90
44775;DHT22;31340;51.402;0.016;2023-01-25T09:13:54;4.20;99.90
44775;DHT22;31340;51.402;0.016;2023-01-25T09:16:24;4.20;99.90
44775;DHT22;31340;51.402;0.016;2023-01-25T09:18:58;4.20;99.90
44775;DHT22;31340;51.402;0.016;2023-01-25T09:21:27;4.20;99.90
44775;DHT22;31340;51.402;0.016;2023-01-25T09:23:56;4.20;99.90
44775;DHT22;31340;51.402;0.016;2023-01-25T09:26:36;4.20;99.90
44775;DHT22;31340;51.402;0.016;2023-01-25T09:29:04;4.30;99.90
44775;DHT22;31340;51.402;0.016;2023-01-25T09:31:36;4.30;99.90
44775;DHT22;31340;51.402;0.016;2023-01-25T09:34:10;4.30;99.90
44775;DHT22;31340;51.402;0.016;2023-01-25T09:36:38;4.30;99.90
44775;DHT22;31340;51.402;0.016;2023-01-25T09:39:06;4.30;99.90
44775;DHT22;31340;51.402;0.016;2023-01-25T09:46:50;4.20;99.90
44775;DHT22;31340;51.402;0.016;2023-01-25T09:55:14;4.20;99.90
44775;DHT22;31340;51.402;0.016;2023-01-25T09:57:44;4.20;99.90
44775;DHT22;31340;51.402;0.016;2023-01-25T10:00:23;4.20;99.90
44775;DHT22;31340;51.402;0.016;2023-01-25T10:05:47;4.30;99.90
44775;DHT22;31340;51.402;0.016;2023-01-25T10:08:37;4.30;99.90
44775;DHT22;31340;51.402;0.016;2023-01-25T10:11:35;4.30;99.90
44775;DHT22;31340;51.402;0.016;2023-01-25T10:14:14;4.40;99.90
44775;DHT22;31340;51.402;0.016;2023-01-25T10:16:50;4.40;99.90
44775;DHT22;31340;51.402;0.016;2023-01-25T10:19:23;4.40;99.90
44775;DHT22;31340;51.402;0.016;2023-01-25T10:22:14;4.40;99.90
44775;DHT22;31340;51.402;0.016;2023-01-25T10:31:03;4.40;99.90
44775;DHT22;31340;51.402;0.016;2023-01-25T10:33:38;4.40;99.90
44775;DHT22;31340;51.402;0.016;2023-01-25T10:36:12;4.40;99.90
44775;DHT22;31340;51.402;0.016;2023-01-25T10:38:45;4.40;99.90
44775;DHT22;31340;51.402;0.016;2023-01-25T10:41:23;4.50;99.90
44775;DHT22;31340;51.402;0.016;2023-01-25T10:43:53;4.50;99.90
44775;DHT22;31340;51.402;0.016;2023-01-25T10:46:42;4.50;99.90
44775;DHT22;31340;51.402;0.016;2023-01-25T10:49:58;4.60;99.90
44775;DHT22;31340;51.402;0.016;2023-01-25T10:52:15;4.60;99.90
44775;DHT22;31340;51.402;0.016;2023-01-25T10:54:43;4.60;99.90
44775;DHT22;31340;51.402;0.016;2023-01-25T10:57:17;4.70;99.90
44775;DHT22;31340;51.402;0.016;2023-01-25T10:59:50;4.70;99.90
44775;DHT22;31340;51.402;0.016;2023-01-25T11:07:46;4.90;99.90
44775;DHT22;31340;51.402;0.016;2023-01-25T11:10:34;4.90;99.90
44775;DHT22;31340;51.402;0.016;2023-01-25T11:15:53;5.00;99.90
44775;DHT22;31340;51.402;0.016;2023-01-25T11:18:30;5.00;99.90
44775;DHT22;31340;51.402;0.016;2023-01-25T11:21:18;5.10;99.90
44775;DHT22;31340;51.402;0.016;2023-01-25T11:26:38;5.20;99.90
44775;DHT22;31340;51.402;0.016;2023-01-25T11:31:38;5.30;99.90
44775;DHT22;31340;51.402;0.016;2023-01-25T11:34:15;5.40;99.90
44775;DHT22;31340;51.402;0.016;2023-01-25T11:37:03;5.50;99.90
44775;DHT22;31340;51.402;0.016;2023-01-25T11:39:39;5.60;99.90
44775;DHT22;31340;51.402;0.016;2023-01-25T11:44:51;5.70;99.90
44775;DHT22;31340;51.402;0.016;2023-01-25T11:50:43;5.90;99.90
44775;DHT22;31340;51.402;0.016;2023-01-25T11:53:45;5.90;99.90
44775;DHT22;31340;51.402;0.016;2023-01-25T12:08:04;6.20;99.90
44775;DHT22;31340;51.402;0.016;2023-01-25T12:13:23;6.40;99.90
44775;DHT22;31340;51.402;0.016;2023-01-25T12:24:45;6.60;99.90
44775;DHT22;31340;51.402;0.016;2023-01-25T12:33:48;6.70;99.90
44775;DHT22;31340;51.402;0.016;2023-01-25T12:36:10;6.70;99.90
44775;DHT22;31340;51.402;0.016;2023-01-25T12:38:51;6.80;99.90
44775;DHT22;31340;51.402;0.016;2023-01-25T12:47:01;6.90;99.90
44775;DHT22;31340;51.402;0.016;2023-01-25T12:49:43;6.90;99.90
44775;DHT22;31340;51.402;0.016;2023-01-25T12:52:32;7.00;99.90
44775;DHT22;31340;51.402;0.016;2023-01-25T12:55:05;7.00;99.90
44775;DHT22;31340;51.402;0.016;2023-01-25T13:00:47;7.00;99.90
44775;DHT22;31340;51.402;0.016;2023-01-25T13:11:36;7.00;99.90
44775;DHT22;31340;51.402;0.016;2023-01-25T13:16:46;7.10;99.90
44775;DHT22;31340;51.402;0.016;2023-01-25T13:19:40;7.00;99.90
44775;DHT22;31340;51.402;0.016;2023-01-25T13:22:10;7.00;99.90
44775;DHT22;31340;51.402;0.016;2023-01-25T13:27:31;7.10;99.90
44775;DHT22;31340;51.402;0.016;2023-01-25T13:30:32;7.00;99.90
44775;DHT22;31340;51.402;0.016;2023-01-25T13:33:05;7.10;99.90
44775;DHT22;31340;51.402;0.016;2023-01-25T13:35:39;7.00;99.90
44775;DHT22;31340;51.402;0.016;2023-01-25T13:40:37;7.00;99.90
44775;DHT22;31340;51.402;0.016;2023-01-25T13:43:17;7.10;99.90
44775;DHT22;31340;51.402;0.016;2023-01-25T13:45:47;7.00;99.90
44775;DHT22;31340;51.402;0.016;2023-01-25T13:48:22;7.00;99.90
44775;DHT22;31340;51.402;0.016;2023-01-25T13:51:02;7.00;99.90
44775;DHT22;31340;51.402;0.016;2023-01-25T13:53:31;7.00;99.90
44775;DHT22;31340;51.402;0.016;2023-01-25T13:56:02;7.00;99.90
44775;DHT22;31340;51.402;0.016;2023-01-25T13:58:31;7.00;99.90
44775;DHT22;31340;51.402;0.016;2023-01-25T14:01:04;7.00;99.90
44775;DHT22;31340;51.402;0.016;2023-01-25T14:03:39;7.00;99.90
44775;DHT22;31340;51.402;0.016;2023-01-25T14:06:33;7.00;99.90
44775;DHT22;31340;51.402;0.016;2023-01-25T14:09:14;7.00;99.90
44775;DHT22;31340;51.402;0.016;2023-01-25T14:11:48;7.00;99.90
44775;DHT22;31340;51.402;0.016;2023-01-25T14:14:29;6.90;99.90
44775;DHT22;31340;51.402;0.016;2023-01-25T14:17:20;7.00;99.90
44775;DHT22;31340;51.402;0.016;2023-01-25T14:19:53;7.00;99.90
44775;DHT22;31340;51.402;0.016;2023-01-25T14:22:25;6.90;99.90
44775;DHT22;31340;51.402;0.016;2023-01-25T14:25:13;7.00;99.90
44775;DHT22;31340;51.402;0.016;2023-01-25T14:27:49;7.00;99.90
44775;DHT22;31340;51.402;0.016;2023-01-25T14:30:29;7.00;99.90
44775;DHT22;31340;51.402;0.016;2023-01-25T14:33:02;7.10;99.90
44775;DHT22;31340;51.402;0.016;2023-01-25T14:40:53;7.10;99.90
44775;DHT22;31340;51.402;0.016;2023-01-25T14:43:22;7.10;99.90
44775;DHT22;31340;51.402;0.016;2023-01-25T14:45:52;7.10;99.90
44775;DHT22;31340;51.402;0.016;2023-01-25T14:48:46;7.10;99.90
44775;DHT22;31340;51.402;0.016;2023-01-25T14:51:24;7.10;99.90
44775;DHT22;31340;51.402;0.016;2023-01-25T14:54:02;7.10;99.90
44775;DHT22;31340;51.402;0.016;2023-01-25T14:56:41;7.10;99.90
44775;DHT22;31340;51.402;0.016;2023-01-25T15:01:52;7.10;99.90
44775;DHT22;31340;51.402;0.016;2023-01-25T15:04:21;7.10;99.90
44775;DHT22;31340;51.402;0.016;2023-01-25T15:06:51;7.10;99.90
44775;DHT22;31340;51.402;0.016;2023-01-25T15:12:26;7.20;99.90
44775;DHT22;31340;51.402;0.016;2023-01-25T15:14:54;7.10;99.90
44775;DHT22;31340;51.402;0.016;2023-01-25T15:17:40;7.10;99.90
44775;DHT22;31340;51.402;0.016;2023-01-25T15:22:58;7.20;99.90
44775;DHT22;31340;51.402;0.016;2023-01-25T15:25:26;7.20;99.90
44775;DHT22;31340;51.402;0.016;2023-01-25T15:27:54;7.30;99.90
44775;DHT22;31340;51.402;0.016;2023-01-25T15:30:22;7.30;99.90
44775;DHT22;31340;51.402;0.016;2023-01-25T15:32:50;7.30;99.90
44775;DHT22;31340;51.402;0.016;2023-01-25T15:35:19;7.50;99.90
44775;DHT22;31340;51.402;0.016;2023-01-25T15:37:47;7.40;99.90
44775;DHT22;31340;51.402;0.016;2023-01-25T15:40:16;7.40;99.90
44775;DHT22;31340;51.402;0.016;2023-01-25T15:42:44;7.40;99.90
44775;DHT22;31340;51.402;0.016;2023-01-25T15:45:12;7.40;99.90
44775;DHT22;31340;51.402;0.016;2023-01-25T15:47:40;7.40;99.90
44775;DHT22;31340;51.402;0.016;2023-01-25T15:50:16;7.40;99.90
44775;DHT22;31340;51.402;0.016;2023-01-25T15:52:44;7.40;99.90
44775;DHT22;31340;51.402;0.016;2023-01-25T15:55:12;7.40;99.90
44775;DHT22;31340;51.402;0.016;2023-01-25T15:57:42;7.40;99.90
44775;DHT22;31340;51.402;0.016;2023-01-25T16:00:18;7.40;99.90
44775;DHT22;31340;51.402;0.016;2023-01-25T16:02:48;7.50;99.90
44775;DHT22;31340;51.402;0.016;2023-01-25T16:05:16;7.40;99.90
44775;DHT22;31340;51.402;0.016;2023-01-25T16:07:44;7.40;99.90
44775;DHT22;31340;51.402;0.016;2023-01-25T16:10:21;7.40;99.90
44775;DHT22;31340;51.402;0.016;2023-01-25T16:12:49;7.40;99.90
44775;DHT22;31340;51.402;0.016;2023-01-25T16:15:17;7.40;99.90
44775;DHT22;31340;51.402;0.016;2023-01-25T16:17:45;7.40;99.90
44775;DHT22;31340;51.402;0.016;2023-01-25T16:20:16;7.50;99.90
44775;DHT22;31340;51.402;0.016;2023-01-25T16:22:44;7.40;99.90
44775;DHT22;31340;51.402;0.016;2023-01-25T16:25:12;7.40;99.90
44775;DHT22;31340;51.402;0.016;2023-01-25T16:27:40;7.40;99.90
44775;DHT22;31340;51.402;0.016;2023-01-25T16:30:19;7.40;99.90
44775;DHT22;31340;51.402;0.016;2023-01-25T16:32:50;7.40;99.90
44775;DHT22;31340;51.402;0.016;2023-01-25T16:35:19;7.40;99.90
44775;DHT22;31340;51.402;0.016;2023-01-25T16:37:47;7.40;99.90
44775;DHT22;31340;51.402;0.016;2023-01-25T16:40:21;7.40;99.90
44775;DHT22;31340;51.402;0.016;2023-01-25T16:42:49;7.40;99.90
44775;DHT22;31340;51.402;0.016;2023-01-25T16:45:17;7.40;99.90
44775;DHT22;31340;51.402;0.016;2023-01-25T16:47:48;7.30;99.90
44775;DHT22;31340;51.402;0.016;2023-01-25T16:50:19;7.30;99.90
44775;DHT22;31340;51.402;0.016;2023-01-25T16:52:47;7.20;99.90
44775;DHT22;31340;51.402;0.016;2023-01-25T16:55:18;7.20;99.90
44775;DHT22;31340;51.402;0.016;2023-01-25T16:57:49;7.20;99.90
44775;DHT22;31340;51.402;0.016;2023-01-25T17:00:17;7.20;99.90
44775;DHT22;31340;51.402;0.016;2023-01-25T17:02:45;7.20;99.90
44775;DHT22;31340;51.402;0.016;2023-01-25T17:05:26;7.20;99.90
44775;DHT22;31340;51.402;0.016;2023-01-25T17:07:59;7.20;99.90
44775;DHT22;31340;51.402;0.016;2023-01-25T17:10:27;7.20;99.90
44775;DHT22;31340;51.402;0.016;2023-01-25T17:12:56;7.10;99.90
44775;DHT22;31340;51.402;0.016;2023-01-25T17:15:24;7.10;99.90
44775;DHT22;31340;51.402;0.016;2023-01-25T17:17:52;7.20;99.90
44775;DHT22;31340;51.402;0.016;2023-01-25T17:20:20;7.20;99.90
44775;DHT22;31340;51.402;0.016;2023-01-25T17:22:47;7.20;99.90
44775;DHT22;31340;51.402;0.016;2023-01-25T17:25:17;7.20;99.90
44775;DHT22;31340;51.402;0.016;2023-01-25T17:27:45;7.20;99.90
44775;DHT22;31340;51.402;0.016;2023-01-25T17:30:13;7.20;99.90
44775;DHT22;31340;51.402;0.016;2023-01-25T17:32:41;7.10;99.90
44775;DHT22;31340;51.402;0.016;2023-01-25T17:35:09;7.10;99.90
44775;DHT22;31340;51.402;0.016;2023-01-25T17:37:37;7.10;99.90
44775;DHT22;31340;51.402;0.016;2023-01-25T17:40:08;7.10;99.90
44775;DHT22;31340;51.402;0.016;2023-01-25T17:42:37;7.10;99.90
44775;DHT22;31340;51.402;0.016;2023-01-25T17:45:05;7.10;99.90
44775;DHT22;31340;51.402;0.016;2023-01-25T17:47:33;7.10;99.90
44775;DHT22;31340;51.402;0.016;2023-01-25T17:50:02;7.10;99.90
44775;DHT22;31340;51.402;0.016;2023-01-25T17:52:30;7.00;99.90
44775;DHT22;31340;51.402;0.016;2023-01-25T17:54:58;7.00;99.90
44775;DHT22;31340;51.402;0.016;2023-01-25T17:57:30;7.00;99.90
44775;DHT22;31340;51.402;0.016;2023-01-25T17:59:58;7.00;99.90
44775;DHT22;31340;51.402;0.016;2023-01-25T18:02:26;7.00;99.90
44775;DHT22;31340;51.402;0.016;2023-01-25T18:04:54;7.00;99.90
44775;DHT22;31340;51.402;0.016;2023-01-25T18:07:24;7.00;99.90
44775;DHT22;31340;51.402;0.016;2023-01-25T18:09:51;7.00;99.90
44775;DHT22;31340;51.402;0.016;2023-01-25T18:12:20;7.00;99.90
44775;DHT22;31340;51.402;0.016;2023-01-25T18:14:48;6.90;99.90